Time;durP1;ratioP1;P1;durP2;ratioP2;P2;SDS_P1;SDS_P2;PMS_P1;PMS_P2;Temp;Humidity;BMP_temperature;BMP_pressure;BME280_temperature;BME280_humidity;BME280_pressure;Samples;Min_cycle;Max_cycle;Signal;HPM_P1;HPM_P2
2023/09/10 00:00:29;;;;;;;;;;;;;;;21.93;50.61;99325.36;67885;1277;1016545;-65
2023/09/10 00:03:52;;;;;;;25.50;10.40;;;;;;;21.89;50.68;99322.58;67828;1277;1016109;-65
2023/09/10 00:06:54;;;;;;;;;;;;;;;21.84;50.97;99322.51;67841;1277;1018522;-65
2023/09/10 00:09:57;;;;;;;25.90;11.10;;;;;;;21.91;50.67;99321.27;67816;1277;1017398;-65
2023/09/10 00:12:59;;;;;;;26.50;10.40;;;;;;;21.91;50.56;99316.14;67840;1277;1016097;-65
2023/09/10 00:16:02;;;;;;;28.00;12.20;;;;;;;21.87;50.44;99319.09;67865;1277;1016522;-65
2023/09/10 00:19:04;;;;;;;26.20;11.40;;;;;;;21.78;50.44;99319.95;67868;1277;1015941;-65
2023/09/10 00:22:06;;;;;;;;;;;;;;;21.77;50.38;99318.05;67837;1277;1018333;-65
2023/09/10 00:25:09;;;;;;;25.70;11.90;;;;;;;21.70;50.52;99317.38;67863;1277;1016432;-65
2023/09/10 00:28:11;;;;;;;;;;;;;;;21.68;50.60;99312.00;67835;1277;1016409;-64
2023/09/10 00:31:13;;;;;;;27.20;12.00;;;;;;;21.81;50.32;99312.34;67849;1253;1016495;-64
2023/09/10 00:34:16;;;;;;;28.10;12.10;;;;;;;21.94;50.04;99314.44;67804;1277;1018078;-64
2023/09/10 00:37:18;;;;;;;26.60;11.80;;;;;;;21.92;50.12;99313.23;67781;1277;1016334;-65
2023/09/10 00:40:21;;;;;;;27.10;11.90;;;;;;;21.70;50.65;99310.61;67838;1269;1016209;-64
2023/09/10 00:43:23;;;;;;;25.20;11.40;;;;;;;21.57;50.79;99310.14;67823;1277;1016521;-63
2023/09/10 00:46:26;;;;;;;26.60;12.30;;;;;;;21.50;50.93;99305.83;67855;1277;1016008;-64
2023/09/10 00:49:28;;;;;;;;;;;;;;;21.46;50.82;99302.09;67903;1277;1016655;-65
2023/09/10 00:52:31;;;;;;;;;;;;;;;21.39;50.84;99300.63;67849;1277;1016459;-65
2023/09/10 00:55:34;;;;;;;26.20;12.20;;;;;;;21.35;50.99;99300.48;67780;1277;1018757;-64
2023/09/10 00:58:37;;;;;;;25.30;11.60;;;;;;;21.38;51.10;99303.34;67838;1277;1016544;-65
2023/09/10 01:01:39;;;;;;;;;;;;;;;21.38;50.85;99304.51;67840;1277;1016434;-65
2023/09/10 01:04:42;;;;;;;26.20;12.70;;;;;;;21.36;51.10;99302.92;67865;1277;1016802;-65
2023/09/10 01:07:44;;;;;;;26.60;11.70;;;;;;;21.35;51.21;99305.28;67893;1277;1016510;-64
2023/09/10 01:10:46;;;;;;;24.00;9.70;;;;;;;21.42;50.98;99299.48;67844;1277;1016464;-65
2023/09/10 01:13:49;;;;;;;25.80;11.00;;;;;;;21.33;50.57;99301.54;67776;1277;1016563;-65
2023/09/10 01:16:51;;;;;;;23.60;10.00;;;;;;;21.29;50.49;99303.92;67812;1277;1016425;-65
2023/09/10 01:19:54;;;;;;;;;;;;;;;21.25;50.41;99302.48;67865;1277;1015854;-63
2023/09/10 01:22:56;;;;;;;24.00;9.90;;;;;;;21.23;50.20;99296.80;67866;1277;1016183;-64
2023/09/10 01:25:58;;;;;;;24.40;10.30;;;;;;;21.23;50.37;99294.95;67842;1277;1018192;-65
2023/09/10 01:29:01;;;;;;;23.40;10.20;;;;;;;21.17;50.47;99293.53;67793;1277;1016390;-65
2023/09/10 01:32:03;;;;;;;23.90;10.50;;;;;;;21.13;50.69;99291.22;67849;1277;1016273;-63
2023/09/10 01:35:06;;;;;;;22.50;10.30;;;;;;;21.06;50.97;99289.10;67796;1277;1016232;-64
2023/09/10 01:38:08;;;;;;;26.00;10.90;;;;;;;20.89;51.26;99285.40;67878;1277;1016401;-64
2023/09/10 01:41:10;;;;;;;;;;;;;;;20.79;51.07;99287.23;67897;1277;1016114;-64
2023/09/10 01:44:13;;;;;;;23.90;10.30;;;;;;;20.71;51.22;99284.63;67815;1277;1016462;-65
2023/09/10 01:47:15;;;;;;;25.50;10.70;;;;;;;20.70;51.11;99283.35;67810;1277;1016371;-64
2023/09/10 01:50:18;;;;;;;26.10;10.80;;;;;;;20.70;51.20;99286.15;67858;1277;1016374;-64
2023/09/10 01:53:20;;;;;;;26.10;12.20;;;;;;;20.73;51.16;99285.32;67855;1277;1016475;-64
2023/09/10 01:56:23;;;;;;;30.50;12.90;;;;;;;20.66;51.42;99280.48;67878;1277;1018834;-64
2023/09/10 01:59:25;;;;;;;23.20;9.90;;;;;;;20.67;51.26;99278.05;67812;1277;1016573;-64
2023/09/10 02:02:28;;;;;;;;;;;;;;;20.67;51.15;99277.20;67808;1277;1016396;-64
2023/09/10 02:05:30;;;;;;;21.30;8.80;;;;;;;20.63;51.22;99272.41;67806;1277;1016234;-64
2023/09/10 02:08:33;;;;;;;28.10;12.30;;;;;;;20.43;51.47;99278.20;67835;1277;1016131;-64
2023/09/10 02:11:35;;;;;;;27.80;12.50;;;;;;;20.38;51.74;99273.38;67860;1277;1016489;-64
2023/09/10 02:14:38;;;;;;;24.40;10.90;;;;;;;20.43;51.86;99271.50;67811;1277;1016507;-64
2023/09/10 02:17:40;;;;;;;23.70;10.30;;;;;;;20.38;51.98;99273.69;67812;1277;1016420;-64
2023/09/10 02:20:42;;;;;;;24.90;10.30;;;;;;;20.33;51.61;99279.68;67873;1277;1016946;-64
2023/09/10 02:23:45;;;;;;;24.30;10.50;;;;;;;20.37;51.53;99280.16;67869;1277;1016219;-64
2023/09/10 02:26:47;;;;;;;;;;;;;;;20.35;51.47;99279.61;67847;1277;1016552;-64
2023/09/10 02:29:50;;;;;;;26.20;12.00;;;;;;;20.39;51.77;99281.97;67817;1277;1016231;-64
2023/09/10 02:32:52;;;;;;;25.40;11.40;;;;;;;20.45;51.79;99277.63;67824;1277;1015791;-64
2023/09/10 02:35:54;;;;;;;25.50;11.20;;;;;;;20.45;51.39;99278.03;67796;1277;1016136;-64
2023/09/10 02:38:57;;;;;;;26.40;11.40;;;;;;;20.44;51.24;99279.02;67832;1277;1015651;-64
2023/09/10 02:41:59;;;;;;;25.30;11.10;;;;;;;20.42;51.18;99276.81;67829;1277;1016486;-64
2023/09/10 02:45:02;;;;;;;26.90;11.60;;;;;;;20.37;51.12;99273.96;67836;1277;1016458;-64
2023/09/10 02:48:04;;;;;;;24.30;11.40;;;;;;;20.39;51.15;99277.73;67851;1277;1016338;-64
2023/09/10 02:51:07;;;;;;;24.60;11.20;;;;;;;20.29;51.44;99277.24;67872;1277;1016098;-64
2023/09/10 02:54:09;;;;;;;26.80;12.00;;;;;;;20.18;51.72;99281.48;67887;1277;1016423;-64
2023/09/10 02:57:12;;;;;;;25.00;11.10;;;;;;;20.17;51.80;99283.27;67781;1277;1015895;-64
2023/09/10 03:00:14;;;;;;;28.80;13.50;;;;;;;20.13;51.67;99284.05;67815;1277;1016246;-64
2023/09/10 03:03:18;;;;;;;26.90;12.70;;;;;;;20.11;51.62;99286.91;67857;1277;1016721;-63
2023/09/10 03:06:21;;;;;;;26.80;11.90;;;;;;;20.13;51.65;99289.31;67889;1277;1016489;-63
2023/09/10 03:09:23;;;;;;;24.60;11.70;;;;;;;20.14;51.40;99288.20;67891;1277;1018076;-64
2023/09/10 03:12:26;;;;;;;23.20;11.10;;;;;;;20.05;51.53;99287.77;67875;1277;1016208;-63
2023/09/10 03:15:28;;;;;;;;;;;;;;;20.09;51.43;99289.19;67853;1277;1016431;-64
2023/09/10 03:18:30;;;;;;;28.40;12.40;;;;;;;20.10;51.48;99286.30;67799;1277;1016416;-64
2023/09/10 03:21:33;;;;;;;27.60;13.70;;;;;;;20.13;51.57;99283.52;67866;1277;1016374;-64
2023/09/10 03:24:35;;;;;;;28.70;12.80;;;;;;;20.17;51.44;99274.79;67863;1277;1016490;-63
2023/09/10 03:27:38;;;;;;;28.20;12.10;;;;;;;20.21;51.38;99272.61;67850;1277;1016407;-64
2023/09/10 03:30:40;;;;;;;;;;;;;;;20.17;51.07;99272.59;67864;1277;1016429;-64
2023/09/10 03:33:43;;;;;;;28.00;12.60;;;;;;;20.04;50.89;99274.92;67767;1277;1016260;-64
2023/09/10 03:36:45;;;;;;;27.80;12.30;;;;;;;19.88;51.15;99278.15;67875;1277;1016551;-63
2023/09/10 03:39:48;;;;;;;25.10;12.40;;;;;;;19.89;51.30;99275.77;67866;1277;1016450;-63
2023/09/10 03:42:50;;;;;;;26.70;11.30;;;;;;;19.93;51.60;99274.31;67817;1277;1016619;-63
2023/09/10 03:45:52;;;;;;;24.20;11.30;;;;;;;19.97;51.55;99278.09;67839;1277;1016252;-63
2023/09/10 03:48:55;;;;;;;23.70;10.50;;;;;;;19.93;51.60;99275.20;67883;1277;1016147;-63
2023/09/10 03:51:57;;;;;;;20.20;8.80;;;;;;;19.99;51.60;99269.33;67861;1277;1016424;-63
2023/09/10 03:55:00;;;;;;;22.60;8.10;;;;;;;19.94;51.37;99268.76;67858;1277;1016454;-63
2023/09/10 03:58:02;;;;;;;20.40;8.70;;;;;;;19.94;51.09;99266.23;67827;1277;1016711;-63
2023/09/10 04:01:05;;;;;;;25.60;11.30;;;;;;;19.88;51.16;99266.10;67838;1277;1018345;-63
2023/09/10 04:04:07;;;;;;;26.60;10.20;;;;;;;20.02;50.73;99264.27;67867;1277;1016462;-63
2023/09/10 04:07:09;;;;;;;26.10;11.70;;;;;;;20.12;50.69;99263.50;67885;1277;1016437;-64
2023/09/10 04:10:12;;;;;;;27.30;12.60;;;;;;;20.25;50.65;99262.48;67850;1277;1017044;-64
2023/09/10 04:13:14;;;;;;;22.00;10.20;;;;;;;20.23;50.99;99268.41;67838;1277;1016289;-64
2023/09/10 04:16:17;;;;;;;21.40;9.20;;;;;;;20.19;51.12;99262.89;67803;1277;1017935;-64
2023/09/10 04:19:19;;;;;;;19.70;7.70;;;;;;;20.03;51.46;99261.57;67871;1277;1016482;-64
2023/09/10 04:22:22;;;;;;;23.30;10.60;;;;;;;20.01;51.26;99260.30;67884;1277;1016477;-63
2023/09/10 04:25:24;;;;;;;23.90;12.00;;;;;;;20.11;51.14;99262.71;67834;1277;1018621;-64
2023/09/10 04:28:26;;;;;;;21.40;7.80;;;;;;;20.17;51.41;99263.98;67804;1277;1018806;-63
2023/09/10 04:31:29;;;;;;;20.10;8.00;;;;;;;20.24;50.70;99261.35;67852;1277;1015885;-63
2023/09/10 04:34:31;;;;;;;24.40;10.10;;;;;;;20.29;50.71;99262.27;67868;1277;1016201;-64
2023/09/10 04:37:34;;;;;;;;;;;;;;;20.40;50.66;99260.88;67861;1277;1016468;-63
2023/09/10 04:40:36;;;;;;;26.00;13.20;;;;;;;20.59;50.71;99261.59;67893;1277;1016071;-64
2023/09/10 04:43:38;;;;;;;26.60;12.50;;;;;;;20.93;50.26;99259.98;67827;1277;1016682;-64
2023/09/10 04:46:41;;;;;;;23.20;11.10;;;;;;;21.00;49.80;99263.14;67845;1277;1016530;-64
2023/09/10 04:49:43;;;;;;;28.80;12.90;;;;;;;21.17;49.64;99262.64;67816;1277;1016423;-64
2023/09/10 04:52:46;;;;;;;28.70;11.40;;;;;;;21.21;49.74;99260.06;67901;1253;1016504;-63
2023/09/10 04:55:48;;;;;;;24.60;10.10;;;;;;;21.34;49.48;99259.86;67859;1277;1017600;-64
2023/09/10 04:58:50;;;;;;;25.90;11.50;;;;;;;21.37;49.60;99260.05;67837;1277;1016451;-64
2023/09/10 05:01:53;;;;;;;24.90;11.90;;;;;;;21.39;50.11;99260.40;67843;1277;1016657;-64
2023/09/10 05:04:55;;;;;;;24.00;11.40;;;;;;;21.52;50.28;99260.63;67793;1277;1016194;-64
2023/09/10 05:07:58;;;;;;;25.00;11.30;;;;;;;21.65;50.05;99262.86;67828;1277;1019198;-64
2023/09/10 05:11:00;;;;;;;;;;;;;;;21.82;50.16;99265.59;67882;1277;1016525;-64
2023/09/10 05:14:03;;;;;;;24.20;10.90;;;;;;;21.97;50.06;99265.20;67862;1277;1016318;-64
2023/09/10 05:17:05;;;;;;;23.10;9.70;;;;;;;22.11;49.86;99265.39;67820;1277;1016251;-63
2023/09/10 05:20:08;;;;;;;22.80;9.80;;;;;;;22.30;49.86;99266.58;67854;1277;1017017;-64
2023/09/10 05:23:11;;;;;;;23.10;10.60;;;;;;;22.36;50.18;99271.54;67861;1253;1016485;-64
2023/09/10 05:26:13;;;;;;;23.30;11.00;;;;;;;22.62;50.02;99270.13;67852;1277;1016399;-64
2023/09/10 05:29:15;;;;;;;23.50;10.70;;;;;;;22.83;50.25;99266.17;67818;1277;1018341;-63
2023/09/10 05:32:18;;;;;;;;;;;;;;;23.05;50.56;99266.15;67839;1277;1016376;-64
2023/09/10 05:35:20;;;;;;;27.30;14.00;;;;;;;23.29;50.68;99262.17;67853;1277;1016483;-64
2023/09/10 05:38:23;;;;;;;25.50;12.70;;;;;;;23.51;51.03;99263.73;67896;1277;1015957;-64
2023/09/10 05:41:25;;;;;;;26.20;14.00;;;;;;;23.92;51.12;99262.75;67815;1277;1016399;-65
2023/09/10 05:44:27;;;;;;;27.60;15.30;;;;;;;24.35;50.80;99264.80;67819;1277;1016220;-64
2023/09/10 05:47:30;;;;;;;29.00;15.80;;;;;;;24.69;50.76;99262.27;67862;1277;1016850;-64
2023/09/10 05:50:32;;;;;;;;;;;;;;;25.04;50.97;99263.31;67895;1277;1016366;-64
2023/09/10 05:53:35;;;;;;;32.00;18.00;;;;;;;25.47;50.43;99264.61;67826;1277;1019571;-64
2023/09/10 05:56:37;;;;;;;;;;;;;;;25.65;50.56;99267.42;67791;1277;1016479;-63
2023/09/10 05:59:40;;;;;;;32.40;18.30;;;;;;;25.97;50.50;99269.86;67831;1277;1016382;-64
2023/09/10 06:02:42;;;;;;;;;;;;;;;26.28;50.25;99276.64;67835;1277;1016357;-63
2023/09/10 06:05:44;;;;;;;31.30;17.80;;;;;;;26.50;49.93;99271.45;67893;1277;1016439;-64
2023/09/10 06:08:47;;;;;;;33.80;17.70;;;;;;;26.67;50.02;99269.98;67371;1277;1016413;-64
2023/09/10 06:11:49;;;;;;;33.50;19.20;;;;;;;26.85;50.02;99272.66;67826;1277;1016519;-63
2023/09/10 06:14:52;;;;;;;34.10;18.30;;;;;;;26.98;50.04;99270.13;67824;1277;1016728;-64
2023/09/10 06:17:54;;;;;;;34.40;19.60;;;;;;;27.29;49.97;99264.30;67848;1277;1016479;-64
2023/09/10 06:20:56;;;;;;;32.20;18.90;;;;;;;27.53;49.49;99262.73;67871;1277;1016266;-64
2023/09/10 06:23:59;;;;;;;34.90;18.60;;;;;;;27.61;49.28;99262.07;67863;1277;1016497;-64
2023/09/10 06:27:01;;;;;;;33.20;18.20;;;;;;;27.87;49.03;99263.81;67829;1277;1015791;-64
2023/09/10 06:30:04;;;;;;;31.80;18.00;;;;;;;28.07;48.73;99263.61;67825;1277;1016487;-64
2023/09/10 06:33:06;;;;;;;32.70;17.90;;;;;;;28.30;48.86;99262.64;67815;1277;1016303;-64
2023/09/10 06:36:09;;;;;;;36.40;19.00;;;;;;;28.44;48.64;99261.82;67843;1277;1016148;-64
2023/09/10 06:39:11;;;;;;;29.90;17.40;;;;;;;28.71;48.56;99265.25;67857;1277;1017729;-64
2023/09/10 06:42:13;;;;;;;31.20;17.30;;;;;;;28.99;48.00;99265.44;67872;1277;1016052;-64
2023/09/10 06:45:16;;;;;;;31.20;17.90;;;;;;;29.14;48.01;99264.61;67799;1277;1016465;-65
2023/09/10 06:48:19;;;;;;;31.00;16.40;;;;;;;29.29;47.86;99267.63;67814;1277;1016546;-64
2023/09/10 06:51:22;;;;;;;29.80;16.50;;;;;;;29.49;47.50;99263.92;67832;1277;1016870;-61
2023/09/10 06:54:24;;;;;;;29.70;16.00;;;;;;;29.68;47.13;99266.42;67812;1277;1016436;-64
2023/09/10 06:57:29;;;;;;;30.00;15.40;;;;;;;29.85;47.02;99267.73;67867;1277;1016535;-64
2023/09/10 07:00:31;;;;;;;30.40;15.60;;;;;;;30.10;46.29;99268.72;67872;1277;1018784;-64
2023/09/10 07:03:34;;;;;;;27.80;15.00;;;;;;;30.12;46.76;99273.05;67754;1277;1016094;-62
2023/09/10 07:06:37;;;;;;;31.60;15.20;;;;;;;30.29;46.27;99274.39;67828;1277;1016525;-63
2023/09/10 07:09:39;;;;;;;30.40;15.00;;;;;;;30.52;45.99;99277.45;67872;1277;1016471;-61
2023/09/10 07:12:41;;;;;;;30.80;14.50;;;;;;;30.84;45.42;99275.49;67865;1277;1016491;-61
2023/09/10 07:15:44;;;;;;;28.30;14.10;;;;;;;31.01;45.27;99277.86;67817;1277;1016512;-62
2023/09/10 07:18:46;;;;;;;28.50;14.10;;;;;;;31.16;44.81;99278.91;67823;1277;1018349;-62
2023/09/10 07:21:49;;;;;;;26.20;13.30;;;;;;;31.43;44.54;99282.48;67839;1277;1016428;-60
2023/09/10 07:24:51;;;;;;;26.50;12.90;;;;;;;31.47;44.18;99285.98;67886;1277;1016478;-62
2023/09/10 07:27:53;;;;;;;27.60;13.30;;;;;;;31.46;44.16;99285.35;67882;1277;1016401;-62
2023/09/10 07:30:56;;;;;;;28.80;13.30;;;;;;;31.63;43.87;99289.48;67826;1277;1016402;-63
2023/09/10 07:33:58;;;;;;;29.60;12.80;;;;;;;31.71;43.89;99293.14;67820;1277;1016155;-62
2023/09/10 07:37:01;;;;;;;27.40;13.00;;;;;;;31.78;44.08;99289.15;67883;1277;1016569;-64
2023/09/10 07:40:03;;;;;;;26.60;12.70;;;;;;;31.98;43.61;99289.69;67885;1277;1016097;-65
2023/09/10 07:43:06;;;;;;;26.50;12.50;;;;;;;32.35;43.55;99287.59;67866;1277;1016500;-65
2023/09/10 07:46:08;;;;;;;26.10;13.00;;;;;;;32.60;42.94;99290.95;67839;1254;1018084;-65
2023/09/10 07:49:10;;;;;;;26.00;12.40;;;;;;;32.82;42.85;99288.24;67833;1277;1016472;-66
2023/09/10 07:52:13;;;;;;;24.40;12.90;;;;;;;33.07;42.42;99286.83;67848;1277;1016415;-62
2023/09/10 07:55:15;;;;;;;26.90;13.00;;;;;;;33.26;42.02;99288.87;67887;1277;1016431;-62
2023/09/10 07:58:18;;;;;;;27.80;14.60;;;;;;;33.36;41.87;99289.52;67860;1277;1016471;-65
2023/09/10 08:01:20;;;;;;;26.10;12.40;;;;;;;33.45;41.81;99285.33;67817;1277;1016439;-64
2023/09/10 08:04:23;;;;;;;30.30;13.50;;;;;;;33.61;41.43;99285.66;67818;1277;1018193;-65
2023/09/10 08:07:26;;;;;;;25.10;11.70;;;;;;;33.60;40.90;99291.38;67767;1277;1016466;-64
2023/09/10 08:10:28;;;;;;;26.00;12.10;;;;;;;33.61;40.68;99287.39;67697;1277;1016439;-64
2023/09/10 08:13:31;;;;;;;24.70;11.50;;;;;;;33.75;40.01;99291.94;67684;1277;1016462;-65
2023/09/10 08:16:33;;;;;;;25.00;12.40;;;;;;;33.79;40.45;99291.42;67774;1277;1016458;-65
2023/09/10 08:19:35;;;;;;;25.70;12.30;;;;;;;34.13;39.65;99293.45;67857;1277;1016366;-62
2023/09/10 08:22:38;;;;;;;26.20;12.20;;;;;;;34.19;39.67;99296.09;67841;1277;1016701;-62
2023/09/10 08:25:41;;;;;;;26.00;12.10;;;;;;;34.31;39.56;99294.63;67803;1277;1016192;-62
2023/09/10 08:28:43;;;;;;;24.60;12.10;;;;;;;34.62;39.10;99291.39;67892;1277;1018931;-62
2023/09/10 08:31:47;;;;;;;25.10;11.90;;;;;;;34.91;38.54;99292.70;67866;1277;1019175;-62
2023/09/10 08:34:50;;;;;;;24.10;11.20;;;;;;;34.96;38.07;99293.79;67918;1277;1019400;-63
2023/09/10 08:37:52;;;;;;;24.70;11.50;;;;;;;35.17;38.24;99287.91;67856;1277;1016095;-65
2023/09/10 08:40:55;;;;;;;25.00;12.40;;;;;;;35.24;37.59;99285.44;67837;1277;1017618;-65
2023/09/10 08:43:57;;;;;;;23.40;10.80;;;;;;;35.27;37.65;99287.24;67812;1277;1016100;-62
2023/09/10 08:46:59;;;;;;;24.70;11.20;;;;;;;35.62;37.68;99285.40;67896;1277;1016645;-63
2023/09/10 08:50:02;;;;;;;25.00;11.70;;;;;;;35.96;37.62;99289.52;67856;1277;1018576;-63
2023/09/10 08:53:06;;;;;;;25.40;11.70;;;;;;;36.11;36.69;99284.26;67855;1277;1016617;-63
2023/09/10 08:56:09;;;;;;;22.50;11.10;;;;;;;36.17;37.05;99285.86;67866;1277;1016311;-62
2023/09/10 08:59:11;;;;;;;22.60;10.00;;;;;;;36.39;36.54;99281.82;67839;1277;1016324;-63
2023/09/10 09:02:13;;;;;;;26.00;10.70;;;;;;;36.53;36.32;99279.02;67836;1277;1016486;-63
2023/09/10 09:05:16;;;;;;;24.10;10.60;;;;;;;36.46;35.92;99277.94;67854;1277;1017673;-63
2023/09/10 09:08:18;;;;;;;23.10;10.10;;;;;;;36.59;35.87;99278.54;67836;1277;1016468;-63
2023/09/10 09:11:21;;;;;;;22.60;10.00;;;;;;;36.62;35.66;99274.54;67810;1277;1016230;-66
2023/09/10 09:14:23;;;;;;;21.20;9.30;;;;;;;36.76;35.51;99275.73;67816;1277;1016434;-66
2023/09/10 09:17:27;;;;;;;23.20;9.90;;;;;;;36.89;34.97;99267.88;67861;1277;1016484;-65
2023/09/10 09:20:29;;;;;;;22.90;9.70;;;;;;;37.00;35.06;99266.52;67820;1277;1016600;-63
2023/09/10 09:23:31;;;;;;;23.10;10.10;;;;;;;37.10;35.30;99260.30;67789;1278;1016847;-63
2023/09/10 09:26:34;;;;;;;22.30;9.80;;;;;;;37.31;34.81;99267.52;67829;1277;1016447;-64
2023/09/10 09:29:36;;;;;;;29.20;10.60;;;;;;;37.50;34.24;99267.75;67870;1277;1015845;-64
2023/09/10 09:32:39;;;;;;;21.90;9.50;;;;;;;37.70;33.98;99260.91;67863;1277;1016402;-63
2023/09/10 09:35:42;;;;;;;24.30;10.10;;;;;;;37.85;34.15;99262.25;67822;1277;1016500;-63
2023/09/10 09:38:44;;;;;;;24.30;10.40;;;;;;;37.85;33.76;99256.82;67839;1277;1016854;-64
2023/09/10 09:41:46;;;;;;;23.30;10.40;;;;;;;37.98;33.74;99259.16;67877;1277;1016346;-64
2023/09/10 09:44:49;;;;;;;19.80;8.90;;;;;;;38.21;33.20;99259.80;67878;1277;1016302;-63
2023/09/10 09:47:51;;;;;;;22.20;9.10;;;;;;;38.28;33.40;99258.65;67832;1277;1016831;-62
2023/09/10 09:50:54;;;;;;;22.40;9.30;;;;;;;38.33;32.55;99252.75;67816;1277;1016494;-63
2023/09/10 09:53:56;;;;;;;22.90;9.60;;;;;;;38.56;32.71;99249.40;67854;1277;1017673;-64
2023/09/10 09:56:58;;;;;;;22.60;9.10;;;;;;;38.56;32.19;99248.70;67863;1277;1016677;-63
2023/09/10 10:00:01;;;;;;;20.10;8.70;;;;;;;38.49;32.27;99249.10;67789;1277;1016085;-64
2023/09/10 10:03:04;;;;;;;21.40;8.50;;;;;;;38.54;31.64;99250.16;67832;1277;1016677;-64
2023/09/10 10:06:07;;;;;;;20.70;8.40;;;;;;;38.51;30.92;99247.41;67885;1277;1016415;-63
2023/09/10 10:12:27;;;;;;;20.50;8.50;;;;;;;38.71;30.81;99242.23;67869;1277;1016384;-63
2023/09/10 10:15:30;;;;;;;20.00;8.70;;;;;;;38.90;30.73;99242.84;67852;1277;1018072;-64
2023/09/10 10:18:35;;;;;;;20.40;9.00;;;;;;;39.26;30.30;99235.58;67891;1277;1016403;-64
2023/09/10 10:25:04;;;;;;;20.80;8.80;;;;;;;39.53;29.74;99233.17;67835;1277;1016430;-63
2023/09/10 10:28:14;;;;;;;20.60;8.40;;;;;;;39.57;29.45;99233.95;67842;1277;1016377;-63
2023/09/10 10:31:16;;;;;;;20.40;8.80;;;;;;;39.47;29.77;99233.55;67870;1277;1016201;-64
2023/09/10 10:34:19;;;;;;;20.40;8.70;;;;;;;39.38;29.33;99231.48;67859;1277;1016425;-63
2023/09/10 10:37:21;;;;;;;19.90;7.80;;;;;;;39.37;29.54;99226.86;67834;1277;1016448;-64
2023/09/10 10:40:24;;;;;;;20.90;8.50;;;;;;;39.43;29.68;99230.26;67813;1277;1016644;-64
2023/09/10 10:43:26;;;;;;;22.10;8.60;;;;;;;39.58;29.55;99221.99;67876;1277;1016487;-63
2023/09/10 10:46:29;;;;;;;20.20;8.70;;;;;;;39.77;29.60;99221.05;67844;1277;1016499;-63
2023/09/10 10:49:31;;;;;;;20.10;8.20;;;;;;;39.74;28.82;99219.89;67860;1277;1016477;-63
2023/09/10 10:52:37;;;;;;;23.70;8.30;;;;;;;39.72;29.18;99218.09;67830;1277;1016454;-63
2023/09/10 10:55:43;;;;;;;19.60;8.50;;;;;;;39.85;28.97;99216.91;67841;1277;1016417;-63
2023/09/10 10:58:55;;;;;;;22.60;8.50;;;;;;;39.93;28.96;99214.74;67840;1277;1018169;-63
2023/09/10 11:01:58;;;;;;;21.70;8.30;;;;;;;39.94;28.85;99209.65;67755;1277;1016298;-63
2023/09/10 11:05:01;;;;;;;18.60;7.50;;;;;;;39.89;28.69;99205.77;67865;1277;1016684;-64
2023/09/10 11:08:04;;;;;;;19.00;8.00;;;;;;;40.13;28.95;99203.30;67841;1277;1016675;-64
2023/09/10 11:11:06;;;;;;;21.20;8.90;;;;;;;40.19;28.39;99191.03;67837;1277;1018021;-64
2023/09/10 11:14:10;;;;;;;20.80;7.80;;;;;;;40.20;28.77;99189.98;67792;1277;1016934;-63
2023/09/10 11:17:14;;;;;;;19.30;7.60;;;;;;;40.34;28.73;99192.01;67834;1277;1016507;-63
2023/09/10 11:20:17;;;;;;;19.40;8.00;;;;;;;40.26;28.51;99189.02;67842;1277;1016556;-63
2023/09/10 11:23:19;;;;;;;19.10;8.10;;;;;;;40.38;28.05;99185.73;67851;1277;1016336;-63
2023/09/10 11:26:22;;;;;;;18.50;7.60;;;;;;;40.40;27.95;99185.38;67873;1277;1016158;-63
2023/09/10 11:29:24;;;;;;;18.20;7.50;;;;;;;40.49;27.97;99181.30;67816;1277;1016420;-64
2023/09/10 11:32:26;;;;;;;19.90;7.30;;;;;;;40.41;27.88;99175.44;67819;1277;1015882;-64
2023/09/10 11:35:29;;;;;;;19.10;7.80;;;;;;;40.62;27.97;99175.45;67877;1277;1016571;-62
2023/09/10 11:38:32;;;;;;;18.30;7.10;;;;;;;40.73;27.67;99176.39;67855;1277;1017766;-63
2023/09/10 11:41:34;;;;;;;19.60;7.40;;;;;;;40.76;27.53;99177.63;67831;1277;1016450;-63
2023/09/10 11:44:37;;;;;;;19.60;7.60;;;;;;;40.61;27.24;99177.77;67841;1277;1016935;-63
2023/09/10 11:47:39;;;;;;;19.60;7.70;;;;;;;40.40;26.74;99172.70;67873;1277;1016268;-63
2023/09/10 11:50:44;;;;;;;19.10;7.80;;;;;;;40.21;27.16;99170.80;67866;1277;1019933;-63
2023/09/10 11:53:46;;;;;;;20.00;7.30;;;;;;;40.22;26.92;99172.01;67815;1254;1016401;-63
2023/09/10 11:56:49;;;;;;;20.80;7.10;;;;;;;40.38;26.84;99161.44;67799;1277;1016450;-63
2023/09/10 11:59:51;;;;;;;18.40;6.90;;;;;;;40.51;26.94;99161.89;67876;1277;1016333;-63
2023/09/10 12:02:58;;;;;;;18.20;6.90;;;;;;;40.73;26.62;99155.93;67878;1277;1016515;-64
2023/09/10 12:06:02;;;;;;;17.60;6.50;;;;;;;40.83;26.62;99152.17;67816;1278;1016396;-63
2023/09/10 12:09:04;;;;;;;18.90;7.20;;;;;;;40.93;26.34;99150.42;67867;1277;1018342;-63
2023/09/10 12:12:07;;;;;;;20.30;7.10;;;;;;;41.00;26.43;99152.08;67809;1278;1016252;-63
2023/09/10 12:15:09;;;;;;;19.30;7.40;;;;;;;41.14;26.36;99145.85;67819;1277;1016243;-64
2023/09/10 12:18:11;;;;;;;18.10;7.20;;;;;;;41.16;26.21;99140.40;67839;1277;1017082;-64
2023/09/10 12:21:15;;;;;;;18.50;6.90;;;;;;;41.33;25.84;99133.77;67838;1277;1016731;-64
2023/09/10 12:24:17;;;;;;;18.20;6.40;;;;;;;41.14;25.80;99139.31;67858;1277;1017540;-63
2023/09/10 12:27:20;;;;;;;17.80;6.70;;;;;;;41.14;25.83;99134.36;67894;1277;1016779;-62
2023/09/10 12:30:22;;;;;;;17.00;6.80;;;;;;;41.25;25.94;99126.89;67880;1277;1016441;-64
2023/09/10 12:33:25;;;;;;;18.00;6.60;;;;;;;41.10;25.26;99129.22;67819;1277;1016269;-64
2023/09/10 12:36:28;;;;;;;17.90;6.40;;;;;;;40.89;25.82;99126.84;67858;1277;1017432;-64
2023/09/10 12:39:33;;;;;;;17.20;6.50;;;;;;;41.16;25.35;99126.42;67848;1277;1016557;-63
2023/09/10 12:42:35;;;;;;;18.10;6.60;;;;;;;40.90;25.50;99128.06;67790;1277;1016342;-63
2023/09/10 12:45:38;;;;;;;17.70;6.60;;;;;;;40.96;25.50;99127.64;67871;1278;1016500;-64
2023/09/10 12:48:40;;;;;;;18.00;6.90;;;;;;;40.96;25.29;99121.98;67851;1277;1016822;-63
2023/09/10 12:51:43;;;;;;;18.00;6.60;;;;;;;40.97;25.29;99122.08;67813;1277;1016113;-64
2023/09/10 12:54:45;;;;;;;18.40;6.50;;;;;;;41.13;25.21;99121.45;67812;1277;1016397;-65
2023/09/10 12:57:47;;;;;;;17.00;6.70;;;;;;;41.40;25.04;99117.58;67859;1277;1016660;-63
2023/09/10 13:00:50;;;;;;;16.70;6.60;;;;;;;41.54;25.11;99118.54;67851;1277;1016346;-64
2023/09/10 13:03:52;;;;;;;18.20;7.10;;;;;;;41.56;24.80;99119.78;67877;1277;1016426;-63
2023/09/10 13:06:55;;;;;;;16.70;6.70;;;;;;;41.69;24.88;99115.89;67878;1277;1016765;-63
2023/09/10 13:09:58;;;;;;;18.00;6.90;;;;;;;41.82;24.72;99117.25;67816;1277;1016006;-63
2023/09/10 13:13:00;;;;;;;19.70;6.90;;;;;;;41.84;25.20;99114.27;67887;1277;1016432;-63
2023/09/10 13:16:03;;;;;;;17.10;6.90;;;;;;;41.79;24.73;99119.33;67858;1277;1016106;-63
2023/09/10 13:19:05;;;;;;;18.90;7.00;;;;;;;41.62;25.00;99115.43;67850;1277;1016217;-63
2023/09/10 13:22:07;;;;;;;20.20;7.60;;;;;;;41.41;24.77;99116.91;67820;1278;1016288;-63
2023/09/10 13:25:10;;;;;;;19.30;6.80;;;;;;;41.30;24.51;99116.73;67871;1278;1016898;-64
2023/09/10 13:28:13;;;;;;;18.10;7.40;;;;;;;41.24;24.73;99115.78;67823;1277;1016458;-64
2023/09/10 13:31:15;;;;;;;20.30;7.80;;;;;;;41.31;24.80;99115.67;67826;1277;1016453;-63
2023/09/10 13:34:17;;;;;;;18.60;7.10;;;;;;;41.40;25.24;99116.92;67859;1277;1016388;-64
2023/09/10 13:37:20;;;;;;;20.00;7.30;;;;;;;41.49;24.80;99115.45;67852;1277;1016439;-63
2023/09/10 13:40:22;;;;;;;19.70;7.20;;;;;;;41.63;25.33;99111.55;67900;1277;1016377;-63
2023/09/10 13:43:25;;;;;;;18.30;6.90;;;;;;;41.78;24.83;99106.73;67847;1277;1015926;-63
2023/09/10 13:46:27;;;;;;;18.60;7.20;;;;;;;41.86;24.86;99105.80;67881;1277;1016103;-63
2023/09/10 13:49:29;;;;;;;18.30;7.00;;;;;;;41.97;25.05;99103.15;67838;1278;1007756;-64
2023/09/10 13:52:32;;;;;;;17.80;7.10;;;;;;;42.01;25.34;99098.67;67908;1277;1008398;-63
2023/09/10 13:55:35;;;;;;;20.00;7.10;;;;;;;42.04;24.70;99098.14;67912;1278;1007813;-63